Allen, Indiana
Current Conditions -  °F | °C
As of 6:15 AM on Monday 20 Oct 2014 (Local Time) from KGWB Reporting Station
Scattered Clouds Scattered Clouds  
Wind Chill: 43°   Ceiling: Unl
Heat Index: 46°   Visibility: 10mi
Dew Point: 41°   Wind: 7mph
Humidity: 81%   Direction: 210°SSW
Pressure: 29.9"   Gusts: NA
Location:  41.4608°N, 85.2531°W
Report Text: KGWB 201015Z AUTO 21006KT 10SM SCT075 08/05 A2990 RMK AO2
Loading
Personal Weather Stations






























Interactive Weather Map New forecast layout! Learn more

10-Day Weather Forecast

Advertisements
Track Severe Weather on mobile